Time;durP1;ratioP1;P1;durP2;ratioP2;P2;SDS_P1;SDS_P2;PMS_P1;PMS_P2;Temp;Humidity;BMP_temperature;BMP_pressure;BME280_temperature;BME280_humidity;BME280_pressure;Samples;Min_cycle;Max_cycle;Signal;HPM_P1;HPM_P2
2023/12/05 05:33:04;;;;;;;;;0.00;0.00;;;;;15.88;51.25;99790.53;5016827;28;45326;-74
2023/12/05 05:35:29;;;;;;;;;0.00;0.00;;;;;15.82;51.71;99785.63;5017068;28;46316;-76
2023/12/05 05:37:54;;;;;;;;;0.00;0.00;;;;;15.84;51.75;99828.75;5016529;28;54347;-75
2023/12/05 05:40:20;;;;;;;;;0.00;0.00;;;;;16.14;51.17;99818.09;5022899;28;45486;-74
2023/12/05 05:42:45;;;;;;;;;0.00;0.00;;;;;16.14;51.47;99817.25;5019290;28;45405;-75
2023/12/05 05:45:11;;;;;;;;;0.00;0.00;;;;;16.22;51.12;99812.91;5016354;28;51832;-75
2023/12/05 05:47:37;;;;;;;;;0.00;0.00;;;;;16.36;50.62;99837.94;4998616;28;45416;-75
2023/12/05 05:50:04;;;;;;;;;0.00;0.00;;;;;16.20;50.79;99822.13;4998876;28;48668;-76
2023/12/05 05:52:29;;;;;;;;;2.00;0.00;;;;;16.38;50.73;99846.78;4998874;28;47408;-76
2023/12/05 05:54:55;;;;;;;;;1.00;0.00;;;;;16.15;50.83;99844.16;5016124;28;60799;-76
2023/12/05 05:57:20;;;;;;;;;2.00;0.25;;;;;15.87;51.68;99839.31;5016509;28;45394;-74
2023/12/05 05:59:45;;;;;;;;;0.50;0.50;;;;;16.00;51.41;99853.53;5017142;28;45495;-76
2023/12/05 06:02:12;;;;;;;;;0.25;0.25;;;;;15.87;51.49;99842.00;5016553;28;55058;-75
2023/12/05 06:04:41;;;;;;;;;0.00;0.00;;;;;15.97;51.54;99856.50;5017074;28;46446;-75
2023/12/05 06:07:07;;;;;;;;;0.75;0.75;;;;;15.80;52.16;99860.59;4999185;28;45962;-76
2023/12/05 06:09:33;;;;;;;;;0.00;0.00;;;;;16.02;51.91;99873.19;4999307;28;45374;-75
2023/12/05 06:11:58;;;;;;;;;0.00;0.00;;;;;15.97;51.79;99878.13;5015497;28;45481;-77
2023/12/05 06:14:24;;;;;;;;;0.00;0.00;;;;;16.19;51.41;99882.63;5016633;28;46460;-75
2023/12/05 06:16:49;;;;;;;;;0.00;0.00;;;;;16.11;51.07;99860.75;5016191;28;45452;-73
2023/12/05 06:19:14;;;;;;;;;0.50;0.00;;;;;16.28;50.76;99879.16;5016552;28;45357;-76
2023/12/05 06:21:40;;;;;;;;;1.25;1.00;;;;;16.28;50.84;99879.16;5016044;28;45565;-76
2023/12/05 06:24:08;;;;;;;;;0.00;0.00;;;;;16.18;50.52;99876.34;5016764;28;45840;-77
2023/12/05 06:26:34;;;;;;;;;2.00;1.00;;;;;16.13;50.27;99902.06;5016341;28;45313;-74
2023/12/05 06:28:59;;;;;;;;;1.00;1.00;;;;;16.19;50.20;99902.41;4998618;28;45531;-77
2023/12/05 06:31:25;;;;;;;;;0.00;0.00;;;;;16.01;50.45;99874.16;5015559;28;45377;-80
2023/12/05 06:33:51;;;;;;;;;0.00;0.00;;;;;16.12;49.99;99895.78;5016168;28;45450;-75
2023/12/05 06:36:16;;;;;;;;;0.50;0.50;;;;;16.12;50.38;99912.00;5016131;28;45422;-79
2023/12/05 06:38:42;;;;;;;;;0.00;0.00;;;;;16.15;49.98;99909.06;5016496;28;45355;-78
2023/12/05 06:41:07;;;;;;;;;0.00;0.00;;;;;16.19;50.23;99913.22;5024580;28;45432;-76
2023/12/05 06:43:36;;;;;;;;;0.50;0.50;;;;;16.34;49.74;99904.81;5016247;28;46577;-76
2023/12/05 06:46:01;;;;;;;;;0.00;0.00;;;;;16.37;49.87;99928.91;5016086;28;45620;-78
2023/12/05 06:48:26;;;;;;;;;2.25;1.00;;;;;16.40;50.20;99934.09;5016027;28;45260;-78
2023/12/05 06:50:52;;;;;;;;;0.75;0.75;;;;;16.38;49.64;99936.91;4997856;28;46991;-78
2023/12/05 06:53:17;;;;;;;;;0.00;0.00;;;;;16.52;49.27;99935.75;5015748;28;45463;-75
2023/12/05 06:55:42;;;;;;;;;1.50;1.00;;;;;16.51;49.52;99942.16;5015565;28;45285;-77
2023/12/05 06:58:08;;;;;;;;;1.00;1.00;;;;;16.38;49.68;99945.03;5021992;28;45368;-76
2023/12/05 07:00:34;;;;;;;;;0.50;0.50;;;;;16.28;49.62;99933.25;5017502;28;55099;-75
2023/12/05 07:02:59;;;;;;;;;1.00;1.00;;;;;16.42;49.59;99959.16;5015308;28;47225;-73
2023/12/05 07:05:24;;;;;;;;;1.00;1.00;;;;;16.42;49.79;99951.88;5015609;28;45265;-77
2023/12/05 07:07:50;;;;;;;;;0.25;0.25;;;;;16.26;50.11;99970.38;5015614;28;45410;-74
2023/12/05 07:10:15;;;;;;;;;1.00;1.00;;;;;16.14;50.09;99965.97;5014699;28;56456;-75
2023/12/05 07:12:40;;;;;;;;;0.00;0.00;;;;;16.11;50.53;99979.72;5015305;28;46379;-77
2023/12/05 07:15:08;;;;;;;;;0.00;0.00;;;;;16.03;50.43;99976.78;5015288;28;45415;-78
2023/12/05 07:17:33;;;;;;;;;2.75;1.25;;;;;15.93;50.69;99975.81;5015278;28;45308;-78
2023/12/05 07:20:00;;;;;;;;;1.00;1.00;;;;;16.19;50.52;99994.34;5014790;28;50199;-75
2023/12/05 07:22:26;;;;;;;;;2.00;2.00;;;;;15.80;50.96;99993.00;4996883;28;47151;-76
2023/12/05 07:24:51;;;;;;;;;1.00;1.00;;;;;15.94;50.76;99993.75;5014889;28;45320;-76
2023/12/05 07:27:16;;;;;;;;;1.00;0.00;;;;;16.14;50.32;99993.88;5013727;28;45353;-77
2023/12/05 07:29:41;;;;;;;;;3.50;1.00;;;;;16.20;50.40;100016.84;5012102;28;57895;-76
2023/12/05 07:32:07;;;;;;;;;1.00;1.00;;;;;16.21;50.25;100005.91;5014559;28;47925;-79
2023/12/05 07:34:32;;;;;;;;;1.50;1.25;;;;;16.23;50.24;100006.66;4997191;28;45499;-76
2023/12/05 07:36:57;;;;;;;;;1.00;1.00;;;;;16.16;50.42;100007.28;5015224;28;45280;-77
2023/12/05 07:39:25;;;;;;;;;1.75;1.00;;;;;16.01;50.68;100022.88;5015107;28;45367;-78
2023/12/05 07:41:50;;;;;;;;;1.00;1.00;;;;;16.23;50.27;100009.38;5023776;28;47071;-77
2023/12/05 07:44:17;;;;;;;;;1.00;1.00;;;;;16.24;49.75;100012.94;5015119;28;45328;-76
2023/12/05 07:46:43;;;;;;;;;1.25;1.25;;;;;16.20;50.34;100028.53;5014921;28;45286;-76
2023/12/05 07:49:09;;;;;;;;;0.75;0.75;;;;;16.10;50.20;100026.69;5014945;28;45336;-78
2023/12/05 07:51:37;;;;;;;;;1.75;1.75;;;;;15.74;50.97;100033.16;5015018;28;45285;-78
2023/12/05 07:54:05;;;;;;;;;1.00;1.00;;;;;16.15;50.37;100038.00;5014901;28;45375;-79
2023/12/05 07:56:30;;;;;;;;;1.00;1.00;;;;;15.94;50.65;100053.22;5014969;28;45507;-78
2023/12/05 07:58:55;;;;;;;;;0.00;0.00;;;;;15.91;50.18;100045.38;4996676;28;46119;-78
2023/12/05 08:01:21;;;;;;;;;1.00;1.00;;;;;15.82;50.57;100061.31;5014466;28;47839;-79
2023/12/05 08:03:46;;;;;;;;;0.75;0.50;;;;;15.86;50.70;100049.28;5014222;28;46939;-79
2023/12/05 08:06:12;;;;;;;;;1.75;1.00;;;;;16.05;50.48;100059.50;5015213;28;45400;-80
2023/12/05 08:08:37;;;;;;;;;0.75;0.75;;;;;16.26;50.21;100049.66;5014755;28;46124;-80
2023/12/05 08:11:03;;;;;;;;;1.00;1.00;;;;;15.93;50.32;100017.22;5014769;28;46179;-77
2023/12/05 08:13:29;;;;;;;;;1.50;0.75;;;;;15.99;50.32;100046.44;5014441;28;45419;-78
2023/12/05 08:15:55;;;;;;;;;1.00;1.00;;;;;16.11;50.68;100075.25;5014625;28;45418;-77
2023/12/05 08:18:20;;;;;;;;;1.00;1.00;;;;;16.31;50.11;100070.09;5014134;28;45373;-79
2023/12/05 08:20:46;;;;;;;;;3.00;2.00;;;;;15.91;50.05;100054.31;5017395;28;46021;-78
2023/12/05 08:23:11;;;;;;;;;1.00;1.00;;;;;16.13;50.33;100075.97;5004775;28;45323;-80
2023/12/05 08:25:36;;;;;;;;;2.00;2.00;;;;;16.20;49.89;100085.31;5006011;28;45620;-79
2023/12/05 08:28:02;;;;;;;;;1.25;1.25;;;;;16.33;49.98;100089.78;5023309;28;45364;-79
2023/12/05 08:30:27;;;;;;;;;1.00;1.00;;;;;16.50;49.25;100098.22;5020668;28;45316;-79
2023/12/05 08:32:57;;;;;;;;;1.25;1.25;;;;;16.35;49.73;100101.31;5014016;28;45474;-78
2023/12/05 08:35:22;;;;;;;;;0.00;0.00;;;;;16.12;50.08;100105.84;4998241;28;46610;-80
2023/12/05 08:37:49;;;;;;;;;1.50;1.00;;;;;16.08;50.15;100089.00;5017099;28;45605;-79
2023/12/05 08:40:15;;;;;;;;;2.50;2.00;;;;;16.42;49.77;100113.34;5023191;28;46113;-78
2023/12/05 08:42:42;;;;;;;;;1.00;1.00;;;;;16.13;49.58;100048.06;5002547;28;46039;-77
2023/12/05 08:45:11;;;;;;;;;4.25;1.00;;;;;16.34;49.55;100113.97;5000200;28;45424;-81
2023/12/05 08:47:40;;;;;;;;;3.00;1.00;;;;;16.34;49.37;100113.97;5017753;28;45554;-80
2023/12/05 08:50:06;;;;;;;;;1.00;1.00;;;;;16.32;49.77;100120.50;5017878;28;46060;-78
2023/12/05 08:52:32;;;;;;;;;1.25;1.25;;;;;16.27;49.79;100096.50;5017527;28;45291;-78
2023/12/05 08:54:57;;;;;;;;;1.00;1.00;;;;;16.51;49.15;100128.84;5000178;28;45337;-79
2023/12/05 08:57:22;;;;;;;;;0.00;0.00;;;;;16.45;49.24;100115.81;5017319;28;45210;-78
2023/12/05 08:59:48;;;;;;;;;0.75;0.75;;;;;16.42;49.35;100110.66;5014842;28;46381;-79
2023/12/05 09:02:13;;;;;;;;;0.00;0.00;;;;;16.05;49.41;100097.38;5024039;28;45539;-78
2023/12/05 09:04:39;;;;;;;;;0.00;0.00;;;;;16.45;49.09;100126.66;5015561;28;45588;-81
2023/12/05 09:07:05;;;;;;;;;0.25;0.25;;;;;16.31;49.04;100121.47;4997162;28;45626;-81
2023/12/05 09:09:30;;;;;;;;;1.25;1.25;;;;;16.24;49.02;100092.22;4998968;28;47643;-78
2023/12/05 09:11:59;;;;;;;;;1.50;1.00;;;;;16.39;49.47;100137.97;4999176;28;45811;-79
2023/12/05 09:14:25;;;;;;;;;2.00;2.00;;;;;16.32;49.19;100134.91;5017296;28;45310;-77
2023/12/05 09:16:50;;;;;;;;;2.75;1.00;;;;;16.31;49.48;100141.28;5016933;28;45288;-80
2023/12/05 09:19:16;;;;;;;;;0.75;0.75;;;;;16.20;49.32;100149.38;4999295;28;47898;-78
2023/12/05 09:21:42;;;;;;;;;1.75;1.00;;;;;16.50;49.32;100174.00;5017420;28;45294;-78
2023/12/05 09:24:08;;;;;;;;;3.00;1.00;;;;;16.60;49.19;100152.47;5017621;28;45324;-78
2023/12/05 09:26:33;;;;;;;;;1.00;0.50;;;;;16.66;48.78;100148.47;4999286;28;46279;-79
2023/12/05 09:28:59;;;;;;;;;1.00;1.00;;;;;16.83;48.35;100181.31;4999249;28;48774;-78
2023/12/05 09:31:24;;;;;;;;;1.50;1.50;;;;;16.75;48.47;100169.38;5016834;28;45526;-79
2023/12/05 09:33:50;;;;;;;;;1.00;1.00;;;;;16.85;48.47;100171.19;5017352;28;45412;-78
2023/12/05 09:36:16;;;;;;;;;0.50;0.50;;;;;16.82;48.74;100174.19;4999307;28;46242;-79
2023/12/05 09:38:41;;;;;;;;;2.00;0.75;;;;;16.91;48.47;100177.97;4999196;28;47403;-79
2023/12/05 09:41:08;;;;;;;;;0.75;0.75;;;;;16.67;48.22;100161.88;5007819;28;45363;-78
2023/12/05 09:43:36;;;;;;;;;2.00;2.00;;;;;16.80;48.42;100173.44;5017266;28;45410;-79
2023/12/05 09:46:04;;;;;;;;;1.00;1.00;;;;;16.93;48.26;100189.53;5016661;28;45295;-79
2023/12/05 09:48:39;;;;;;;;;1.00;1.00;;;;;16.70;47.91;100149.94;5016904;28;45678;-79
2023/12/05 09:51:05;;;;;;;;;1.00;1.00;;;;;16.87;48.61;100193.59;4999009;28;45393;-78
2023/12/05 09:53:31;;;;;;;;;2.00;2.00;;;;;16.94;47.96;100189.41;5016926;28;45304;-79
2023/12/05 09:55:58;;;;;;;;;3.00;1.50;;;;;16.78;48.91;100207.00;5016526;28;45666;-79
2023/12/05 09:58:24;;;;;;;;;3.25;2.00;;;;;17.02;48.49;100214.03;5016480;28;46231;-78
2023/12/05 10:00:55;;;;;;;;;4.75;2.00;;;;;17.08;48.11;100226.22;5016233;28;45376;-78
2023/12/05 10:03:22;;;;;;;;;2.00;2.00;;;;;16.83;48.65;100212.94;5016911;28;45328;-77
2023/12/05 10:05:48;;;;;;;;;2.25;2.00;;;;;16.88;48.59;100216.13;4998803;28;45647;-81
2023/12/05 10:08:14;;;;;;;;;0.50;0.50;;;;;17.00;48.90;100212.44;5016701;28;45550;-79
2023/12/05 10:10:45;;;;;;;;;2.00;2.00;;;;;17.06;48.41;100246.28;5016718;28;45775;-79
2023/12/05 10:13:12;;;;;;;;;3.50;1.75;;;;;16.87;48.46;100239.63;5016529;28;45339;-78
2023/12/05 10:15:39;;;;;;;;;2.00;2.00;;;;;16.88;48.43;100241.34;4998566;28;47269;-78
2023/12/05 10:18:05;;;;;;;;;1.00;1.00;;;;;16.57;48.15;100237.50;5016275;28;46126;-78
2023/12/05 10:20:30;;;;;;;;;0.00;0.00;;;;;16.77;48.16;100246.75;4998573;28;45522;-80
2023/12/05 10:22:56;;;;;;;;;1.00;1.00;;;;;16.71;48.14;100238.28;5016596;28;45479;-78
2023/12/05 10:25:21;;;;;;;;;2.00;2.00;;;;;16.81;48.46;100253.66;4998632;28;45322;-79
2023/12/05 10:28:01;;;;;;;;;2.00;1.00;;;;;16.70;47.70;100244.66;5016162;28;46362;-79
2023/12/05 10:30:33;;;;;;;;;2.00;2.00;;;;;16.95;48.12;100258.84;5015971;28;45439;-78
2023/12/05 10:33:11;;;;;;;;;4.50;2.00;;;;;16.89;47.97;100261.19;4998440;28;45417;-80
2023/12/05 10:35:37;;;;;;;;;3.00;1.75;;;;;16.90;47.96;100255.66;5015791;28;45376;-78
2023/12/05 10:38:07;;;;;;;;;1.75;1.75;;;;;16.73;48.14;100257.97;4998030;28;47809;-80
2023/12/05 10:41:02;;;;;;;;;1.75;1.00;;;;;16.83;47.74;100257.13;5023935;28;45249;-80
2023/12/05 10:43:30;;;;;;;;;1.00;1.00;;;;;16.62;47.93;100259.66;4988930;28;45402;-79
2023/12/05 10:45:57;;;;;;;;;3.00;1.50;;;;;16.87;47.54;100264.00;5015660;28;45440;-77
2023/12/05 10:48:25;;;;;;;;;1.00;1.00;;;;;16.71;47.94;100268.91;4998000;28;47452;-79
2023/12/05 10:50:51;;;;;;;;;1.00;1.00;;;;;16.23;47.99;100235.69;4997887;28;45827;-79
2023/12/05 10:53:17;;;;;;;;;2.00;1.00;;;;;16.74;47.62;100255.13;5015941;28;45484;-78
2023/12/05 10:55:43;;;;;;;;;3.00;1.50;;;;;16.57;48.03;100274.53;5015697;28;45479;-78
2023/12/05 10:58:09;;;;;;;;;1.00;1.00;;;;;16.73;48.08;100252.56;5014865;28;45423;-80
2023/12/05 11:00:36;;;;;;;;;1.00;1.00;;;;;17.03;47.03;100277.16;5015466;28;45329;-80
2023/12/05 11:03:03;;;;;;;;;3.75;2.00;;;;;17.00;47.36;100282.84;5015952;28;45332;-80
2023/12/05 11:05:30;;;;;;;;;2.25;2.25;;;;;16.93;47.25;100277.03;4997620;28;45308;-79
2023/12/05 11:07:56;;;;;;;;;2.50;2.50;;;;;16.86;47.44;100264.97;5015695;28;45266;-79
2023/12/05 11:10:22;;;;;;;;;1.25;1.25;;;;;17.23;46.94;100302.66;5015631;28;45174;-77
2023/12/05 11:12:50;;;;;;;;;1.00;1.00;;;;;16.82;47.43;100285.19;5015797;28;45662;-80
2023/12/05 11:15:27;;;;;;;;;2.00;2.00;;;;;16.53;48.07;100286.56;5015325;28;45364;-78
2023/12/05 11:17:59;;;;;;;;;2.00;2.00;;;;;16.80;47.75;100270.88;5015444;28;45356;-78
2023/12/05 11:20:52;;;;;;;;;2.00;2.00;;;;;16.85;47.66;100297.59;4997828;28;45310;-78
2023/12/05 11:23:37;;;;;;;;;2.25;2.00;;;;;16.83;47.37;100302.28;4997744;28;45649;-78
2023/12/05 11:26:14;;;;;;;;;1.00;1.00;;;;;16.95;47.26;100299.44;5015458;28;45464;-78
2023/12/05 11:29:01;;;;;;;;;2.00;2.00;;;;;16.81;47.82;100304.25;4997417;28;47365;-79
2023/12/05 11:31:41;;;;;;;;;2.50;2.00;;;;;16.45;48.21;100273.63;5014731;28;45487;-78
2023/12/05 11:34:42;;;;;;;;;3.00;3.00;;;;;17.01;47.60;100308.97;4997490;28;45278;-80
2023/12/05 11:37:39;;;;;;;;;2.00;2.00;;;;;16.86;48.11;100311.00;4999363;28;45378;-77
2023/12/05 11:40:06;;;;;;;;;6.25;6.00;;;;;16.64;48.20;100301.00;4997063;28;48259;-78
2023/12/05 11:42:34;;;;;;;;;12.75;3.00;;;;;16.85;47.78;100295.75;5001711;28;45436;-78
2023/12/05 11:45:19;;;;;;;;;3.00;3.00;;;;;16.83;48.15;100297.72;5015115;28;45341;-78
2023/12/05 11:47:46;;;;;;;;;3.50;3.00;;;;;17.03;47.85;100318.66;5014893;28;45327;-79
2023/12/05 11:50:15;;;;;;;;;5.75;3.00;;;;;17.11;47.65;100322.59;5014956;28;46246;-79
2023/12/05 11:52:40;;;;;;;;;2.75;2.75;;;;;16.92;47.96;100315.97;5014766;28;45262;-78
2023/12/05 11:55:08;;;;;;;;;2.25;1.75;;;;;16.88;47.98;100314.47;4997191;28;45477;-79
2023/12/05 11:57:34;;;;;;;;;3.00;3.00;;;;;16.76;48.40;100315.41;5015132;28;45542;-79
2023/12/05 11:59:59;;;;;;;;;2.00;2.00;;;;;16.50;48.60;100312.00;5015308;28;46277;-80
2023/12/05 12:02:31;;;;;;;;;4.50;4.50;;;;;16.80;48.55;100324.16;5014813;28;45452;-79
2023/12/05 12:05:00;;;;;;;;;4.50;3.00;;;;;16.67;48.10;100299.06;5015860;28;45419;-80
2023/12/05 12:07:25;;;;;;;;;4.50;4.25;;;;;16.60;48.49;100302.19;5018843;28;45341;-80
2023/12/05 12:09:51;;;;;;;;;8.25;5.50;;;;;16.51;48.79;100319.13;5013601;28;46074;-78
2023/12/05 12:12:17;;;;;;;;;3.50;3.50;;;;;15.82;48.98;100314.56;5014936;28;45375;-78
2023/12/05 12:14:42;;;;;;;;;3.50;3.50;;;;;16.37;49.29;100323.88;5015142;28;45490;-79
2023/12/05 12:17:11;;;;;;;;;3.75;3.75;;;;;16.71;48.84;100339.28;5014693;28;45447;-79
2023/12/05 12:19:38;;;;;;;;;2.50;2.00;;;;;16.34;49.26;100330.38;5033808;28;46305;-80
2023/12/05 12:22:12;;;;;;;;;6.00;3.00;;;;;16.46;49.04;100324.06;5034826;28;45619;-79
2023/12/05 12:24:39;;;;;;;;;4.00;2.50;;;;;16.54;48.99;100340.56;5034548;28;45304;-78
2023/12/05 12:27:06;;;;;;;;;2.00;2.00;;;;;16.80;48.56;100343.13;5034680;28;45566;-79
2023/12/05 12:29:32;;;;;;;;;4.00;4.00;;;;;16.74;48.80;100308.41;5032680;28;45444;-79
2023/12/05 12:32:11;;;;;;;;;2.75;2.75;;;;;17.02;48.17;100344.00;5016335;28;45433;-78
2023/12/05 12:34:42;;;;;;;;;3.00;3.00;;;;;16.47;48.62;100338.44;5016505;28;45368;-80
2023/12/05 12:37:10;;;;;;;;;4.00;2.50;;;;;16.68;48.04;100309.75;5034456;28;45511;-79
2023/12/05 12:39:36;;;;;;;;;3.00;3.00;;;;;17.07;48.19;100340.09;5033918;28;45414;-78
2023/12/05 12:42:03;;;;;;;;;6.25;4.00;;;;;16.96;48.13;100314.72;5038483;28;45650;-80
2023/12/05 12:44:29;;;;;;;;;3.00;3.00;;;;;17.10;47.61;100366.94;5014263;28;45520;-77
2023/12/05 12:46:55;;;;;;;;;2.75;2.75;;;;;17.13;47.62;100367.56;5034350;28;45464;-79
2023/12/05 12:49:21;;;;;;;;;2.00;2.00;;;;;16.72;48.50;100364.50;5002855;28;47406;-78
2023/12/05 12:51:47;;;;;;;;;2.00;2.00;;;;;17.22;47.75;100357.84;5034115;28;45512;-79
2023/12/05 12:54:12;;;;;;;;;3.75;3.75;;;;;17.06;47.57;100330.25;5033922;28;45411;-78
2023/12/05 12:56:39;;;;;;;;;3.00;2.75;;;;;17.46;47.50;100364.00;5016142;28;45416;-80
2023/12/05 12:59:05;;;;;;;;;2.00;2.00;;;;;17.40;46.91;100353.66;5015977;28;46242;-78
2023/12/05 13:01:40;;;;;;;;;2.00;2.00;;;;;17.43;46.79;100356.13;5033985;28;45347;-80
2023/12/05 13:04:10;;;;;;;;;2.00;2.00;;;;;17.49;47.11;100361.03;5009914;28;45393;-79
2023/12/05 13:06:37;;;;;;;;;2.00;2.00;;;;;17.49;46.77;100360.19;5027856;28;45392;-80
2023/12/05 13:09:12;;;;;;;;;2.75;2.75;;;;;17.37;46.67;100348.47;5049526;28;48016;-78
2023/12/05 13:11:39;;;;;;;;;2.25;2.25;;;;;17.68;46.63;100374.03;5016040;28;45481;-79
2023/12/05 13:14:24;;;;;;;;;1.50;1.50;;;;;17.42;46.47;100343.56;5016370;28;45425;-78
2023/12/05 13:16:49;;;;;;;;;2.00;1.00;;;;;17.52;46.28;100362.66;5034125;28;45274;-77
2023/12/05 13:19:35;;;;;;;;;3.50;2.00;;;;;17.51;46.56;100361.78;5033975;28;45314;-78
2023/12/05 13:22:00;;;;;;;;;1.00;1.00;;;;;17.52;46.13;100377.06;5037683;28;45383;-79
2023/12/05 13:24:26;;;;;;;;;1.50;1.50;;;;;17.63;45.92;100379.78;5037354;28;45219;-77
2023/12/05 13:26:52;;;;;;;;;1.00;1.00;;;;;17.81;46.05;100382.88;5037524;28;45475;-79
2023/12/05 13:29:17;;;;;;;;;1.25;1.25;;;;;17.76;45.74;100369.69;5051750;28;47179;-78
2023/12/05 13:31:43;;;;;;;;;2.00;2.00;;;;;17.92;45.33;100377.44;5037256;28;45282;-78
2023/12/05 13:34:09;;;;;;;;;5.00;1.75;;;;;18.00;45.59;100390.34;5044058;28;45419;-78
2023/12/05 13:36:34;;;;;;;;;1.00;1.00;;;;;17.72;44.70;100375.47;5047302;28;45271;-79
2023/12/05 13:39:00;;;;;;;;;1.00;1.00;;;;;17.58;44.89;100394.69;5063267;28;46305;-78
2023/12/05 13:41:25;;;;;;;;;2.00;2.00;;;;;17.77;44.73;100387.69;5034265;28;45291;-78
2023/12/05 13:43:51;;;;;;;;;2.00;2.00;;;;;17.88;44.63;100392.22;5030086;28;45328;-80
2023/12/05 13:46:17;;;;;;;;;2.00;2.00;;;;;17.78;44.50;100399.38;5036718;28;45449;-78
2023/12/05 13:48:44;;;;;;;;;3.00;1.00;;;;;17.86;44.48;100383.38;5036704;28;46281;-80
2023/12/05 13:51:09;;;;;;;;;1.00;1.00;;;;;17.89;44.39;100385.81;5036463;28;45351;-80
2023/12/05 13:53:35;;;;;;;;;1.50;1.50;;;;;18.11;44.38;100393.06;5036534;28;45549;-79
2023/12/05 13:56:02;;;;;;;;;1.00;1.00;;;;;17.98;43.92;100376.91;5018791;28;45257;-79
2023/12/05 13:58:28;;;;;;;;;2.00;2.00;;;;;18.34;43.39;100380.28;5018402;28;47435;-77
2023/12/05 14:00:53;;;;;;;;;2.00;2.00;;;;;18.63;43.73;100386.84;5018272;28;45312;-78
2023/12/05 14:03:18;;;;;;;;;1.25;1.25;;;;;18.53;42.38;100358.75;5018347;28;55451;-79
2023/12/05 14:05:44;;;;;;;;;1.50;1.00;;;;;18.75;42.33;100358.66;5036164;28;45497;-78
2023/12/05 14:08:09;;;;;;;;;1.00;1.00;;;;;18.68;41.85;100376.47;5036367;28;45533;-79
2023/12/05 14:10:35;;;;;;;;;2.00;0.75;;;;;18.66;41.10;100386.59;5036358;28;45272;-79
2023/12/05 14:13:00;;;;;;;;;0.00;0.00;;;;;18.93;40.60;100390.66;5036313;28;45391;-78
2023/12/05 14:15:26;;;;;;;;;1.00;1.00;;;;;19.09;39.62;100391.03;5036102;28;45381;-80
2023/12/05 14:17:52;;;;;;;;;0.00;0.00;;;;;19.44;39.01;100404.28;5036282;28;45419;-78
2023/12/05 14:20:17;;;;;;;;;0.00;0.00;;;;;19.08;39.19;100379.31;5036264;28;45335;-80
2023/12/05 14:22:42;;;;;;;;;0.00;0.00;;;;;19.49;39.05;100396.59;5036397;28;45359;-78
2023/12/05 14:25:09;;;;;;;;;1.00;1.00;;;;;19.04;39.20;100386.03;5036049;28;45608;-79
2023/12/05 14:27:35;;;;;;;;;0.00;0.00;;;;;19.20;37.99;100391.84;5036242;28;45928;-79
2023/12/05 14:30:00;;;;;;;;;0.00;0.00;;;;;19.74;38.24;100398.84;5035138;28;45223;-78
2023/12/05 14:32:25;;;;;;;;;1.00;1.00;;;;;19.39;38.16;100422.84;5035208;28;45407;-78
2023/12/05 14:34:51;;;;;;;;;3.00;0.00;;;;;19.61;37.88;100411.81;5035992;28;45672;-79
2023/12/05 14:37:18;;;;;;;;;0.00;0.00;;;;;19.79;37.91;100390.28;5036018;28;45351;-79
2023/12/05 14:39:44;;;;;;;;;0.00;0.00;;;;;19.82;37.54;100426.22;5035696;28;45273;-78
2023/12/05 14:42:10;;;;;;;;;0.00;0.00;;;;;19.73;37.87;100434.38;5023780;28;45409;-78
2023/12/05 14:44:36;;;;;;;;;0.00;0.00;;;;;20.09;37.04;100443.78;5016600;28;45637;-80
2023/12/05 14:47:02;;;;;;;;;0.00;0.00;;;;;19.79;37.70;100444.69;5035858;28;45449;-78
2023/12/05 14:49:28;;;;;;;;;0.00;0.00;;;;;19.83;37.65;100438.81;5035788;28;45357;-77
2023/12/05 14:51:53;;;;;;;;;1.00;1.00;;;;;19.56;37.97;100417.66;5035815;28;45404;-82
2023/12/05 14:54:18;;;;;;;;;0.00;0.00;;;;;19.87;37.80;100443.00;5035487;28;45387;-80
2023/12/05 14:56:44;;;;;;;;;0.50;0.50;;;;;19.02;38.26;100460.50;5035762;28;45190;-79
2023/12/05 14:59:09;;;;;;;;;0.00;0.00;;;;;18.56;39.55;100450.75;5035487;28;45349;-80
2023/12/05 15:01:34;;;;;;;;;1.75;1.00;;;;;18.74;39.60;100457.41;5035840;28;45323;-78
2023/12/05 15:04:00;;;;;;;;;1.00;1.00;;;;;18.72;39.50;100461.22;5035711;28;45421;-77
2023/12/05 15:06:25;;;;;;;;;0.00;0.00;;;;;18.92;39.89;100454.13;5017663;28;46244;-78
2023/12/05 15:08:50;;;;;;;;;1.00;1.00;;;;;18.74;39.57;100440.25;5035600;28;45481;-78
2023/12/05 15:11:16;;;;;;;;;1.00;1.00;;;;;18.44;40.12;100444.53;5035742;28;45340;-80
2023/12/05 15:13:41;;;;;;;;;0.25;0.25;;;;;18.21;40.96;100444.69;5035321;28;45233;-79
2023/12/05 15:16:07;;;;;;;;;0.00;0.00;;;;;18.19;41.31;100474.69;5035320;28;45354;-78
2023/12/05 15:18:32;;;;;;;;;1.00;1.00;;;;;18.34;41.34;100486.13;5035169;28;45244;-79
2023/12/05 15:20:59;;;;;;;;;1.00;1.00;;;;;17.98;41.61;100449.28;5035689;28;45329;-79
2023/12/05 15:23:24;;;;;;;;;0.00;0.00;;;;;18.06;41.89;100496.50;5035268;28;45567;-78
2023/12/05 15:25:50;;;;;;;;;0.75;0.75;;;;;17.89;41.88;100458.16;5017469;28;46171;-77
2023/12/05 15:28:16;;;;;;;;;3.00;3.00;;;;;17.81;42.46;100466.94;5050660;28;45472;-77
2023/12/05 15:30:42;;;;;;;;;1.50;1.50;;;;;17.89;42.90;100496.13;5033338;28;45347;-78
2023/12/05 15:33:07;;;;;;;;;3.00;3.00;;;;;17.75;42.99;100494.53;5035208;28;45250;-79
2023/12/05 15:35:33;;;;;;;;;2.00;2.00;;;;;17.55;43.32;100515.06;5035162;28;46017;-79
2023/12/05 15:37:58;;;;;;;;;2.00;2.00;;;;;17.37;43.51;100468.56;5034972;28;45407;-78
2023/12/05 15:40:23;;;;;;;;;3.25;2.00;;;;;17.54;43.18;100475.38;5035189;28;45771;-79
2023/12/05 15:42:49;;;;;;;;;3.50;2.25;;;;;17.73;43.30;100505.50;5021471;28;45393;-79
2023/12/05 15:45:16;;;;;;;;;2.25;2.25;;;;;17.41;43.48;100482.75;5034751;28;45332;-78
2023/12/05 15:47:42;;;;;;;;;3.00;3.00;;;;;17.65;43.58;100504.38;5030584;28;45455;-77
2023/12/05 15:50:08;;;;;;;;;1.00;1.00;;;;;17.55;43.72;100511.47;5026661;28;45214;-79
2023/12/05 15:52:34;;;;;;;;;4.00;2.00;;;;;17.70;43.39;100504.88;5034789;28;45248;-79
2023/12/05 15:54:59;;;;;;;;;1.00;1.00;;;;;17.53;43.10;100503.47;5017020;28;48233;-79
2023/12/05 15:57:25;;;;;;;;;1.25;1.00;;;;;17.71;43.29;100528.28;5034944;28;45472;-80
2023/12/05 15:59:51;;;;;;;;;2.75;1.75;;;;;17.50;43.51;100522.69;5035520;28;45522;-78
2023/12/05 16:02:17;;;;;;;;;0.50;0.50;;;;;17.68;43.47;100528.56;5035596;28;45479;-79
2023/12/05 16:04:43;;;;;;;;;1.00;1.00;;;;;17.33;43.10;100515.00;5035762;28;45500;-80
2023/12/05 16:07:10;;;;;;;;;1.25;1.00;;;;;17.41;43.34;100526.13;5034965;28;45338;-79
2023/12/05 16:09:38;;;;;;;;;1.50;1.50;;;;;17.01;43.05;100521.03;5035400;28;45174;-78
2023/12/05 16:12:04;;;;;;;;;0.50;0.50;;;;;17.51;42.63;100524.41;5030613;28;45345;-79
2023/12/05 16:14:32;;;;;;;;;1.00;1.00;;;;;17.34;42.25;100538.41;5025692;28;45884;-78
2023/12/05 16:16:58;;;;;;;;;1.00;1.00;;;;;17.38;42.19;100527.22;5016522;28;45372;-80
2023/12/05 16:19:24;;;;;;;;;1.50;0.25;;;;;17.45;41.99;100530.28;5034834;28;45554;-79
2023/12/05 16:21:49;;;;;;;;;1.00;1.00;;;;;17.58;41.69;100547.34;5005569;28;47089;-79
2023/12/05 16:24:14;;;;;;;;;2.00;2.00;;;;;17.72;41.49;100551.72;5017036;28;47079;-81
2023/12/05 16:26:40;;;;;;;;;1.00;1.00;;;;;17.54;41.92;100526.88;5035027;28;45424;-80
2023/12/05 16:29:05;;;;;;;;;1.00;1.00;;;;;17.43;42.16;100567.53;5035704;28;45518;-79
2023/12/05 16:31:31;;;;;;;;;2.00;1.00;;;;;17.41;42.59;100566.78;5029868;28;45423;-79
2023/12/05 16:33:57;;;;;;;;;2.00;2.00;;;;;17.29;43.01;100560.44;5025552;28;46322;-80
2023/12/05 16:36:26;;;;;;;;;3.00;3.00;;;;;17.17;43.30;100568.66;5034391;28;45305;-81
2023/12/05 16:38:52;;;;;;;;;3.75;2.00;;;;;17.06;43.86;100568.59;5035112;28;45384;-80
2023/12/05 16:41:17;;;;;;;;;2.00;1.00;;;;;17.05;43.81;100558.72;5028305;28;45356;-79
2023/12/05 16:43:43;;;;;;;;;3.00;1.00;;;;;17.14;43.46;100549.91;5025211;28;46045;-79
2023/12/05 16:46:08;;;;;;;;;1.50;1.00;;;;;17.27;43.54;100564.22;5031950;28;45455;-78
2023/12/05 16:48:34;;;;;;;;;3.00;1.00;;;;;17.27;43.30;100529.88;5033047;28;45455;-78
2023/12/05 16:50:59;;;;;;;;;2.00;2.00;;;;;17.29;43.50;100555.00;5033857;28;45311;-78
2023/12/05 16:53:25;;;;;;;;;3.25;2.00;;;;;17.43;43.53;100572.94;5034137;28;45314;-78
2023/12/05 16:55:50;;;;;;;;;1.00;1.00;;;;;17.30;43.98;100586.56;5035712;28;47722;-79
2023/12/05 16:58:18;;;;;;;;;2.00;2.00;;;;;17.49;43.77;100593.28;5019506;28;45317;-79